createdAt,value
2017-10-20T00:00:15.631Z,7.90
2017-10-20T00:02:43.419Z,7.57
2017-10-20T00:05:11.179Z,8.80
2017-10-20T00:07:38.949Z,8.20
2017-10-20T00:10:07.313Z,8.50
2017-10-20T00:12:35.046Z,8.90
2017-10-20T00:15:02.892Z,7.70
2017-10-20T00:17:31.441Z,8.00
2017-10-20T00:19:59.302Z,8.40
2017-10-20T00:22:27.065Z,7.10
2017-10-20T00:24:54.873Z,7.67
2017-10-20T00:27:23.416Z,7.33
2017-10-20T00:29:52.000Z,7.30
2017-10-20T00:32:19.847Z,7.77
2017-10-20T00:34:47.743Z,6.53
2017-10-20T00:37:15.703Z,7.57
2017-10-20T00:39:43.568Z,7.23
2017-10-20T00:42:11.517Z,7.27
2017-10-20T00:44:39.407Z,8.43
2017-10-20T00:47:07.378Z,7.73
2017-10-20T00:49:35.323Z,9.27
2017-10-20T00:52:03.243Z,8.60
2017-10-20T00:54:32.715Z,9.00
2017-10-20T00:57:00.672Z,8.50
2017-10-20T00:59:28.543Z,7.40
2017-10-20T01:01:56.496Z,8.40
2017-10-20T01:04:24.274Z,9.50
2017-10-20T01:06:52.091Z,9.10
2017-10-20T01:09:19.915Z,9.80
2017-10-20T01:11:47.781Z,9.50
2017-10-20T01:14:15.566Z,9.10
2017-10-20T01:16:44.135Z,8.90
2017-10-20T01:19:12.740Z,9.50
2017-10-20T01:21:41.515Z,9.30
2017-10-20T01:24:09.338Z,8.63
2017-10-20T01:26:37.431Z,9.27
2017-10-20T01:29:05.405Z,8.50
2017-10-20T01:31:33.262Z,8.20
2017-10-20T01:34:01.238Z,7.60
2017-10-20T01:36:29.062Z,9.37
2017-10-20T01:38:56.941Z,8.90
2017-10-20T01:41:24.941Z,8.10
2017-10-20T01:43:52.771Z,7.90
2017-10-20T01:46:20.677Z,8.00
2017-10-20T01:48:48.622Z,8.03
2017-10-20T01:51:16.592Z,7.40
2017-10-20T01:53:44.483Z,8.10
2017-10-20T01:56:12.303Z,8.13
2017-10-20T01:58:40.421Z,8.67
2017-10-20T02:01:08.165Z,8.50
2017-10-20T02:03:35.986Z,7.07
2017-10-20T02:06:04.024Z,7.60
2017-10-20T02:08:31.988Z,8.53
2017-10-20T02:10:59.855Z,9.10
2017-10-20T02:13:27.824Z,7.63
2017-10-20T02:15:55.872Z,7.33
2017-10-20T02:18:23.651Z,7.30
2017-10-20T02:20:51.427Z,8.10
2017-10-20T02:23:19.282Z,8.07
2017-10-20T02:25:47.760Z,7.30
2017-10-20T02:28:15.715Z,7.47
2017-10-20T02:30:43.582Z,8.40
2017-10-20T02:33:11.880Z,7.53
2017-10-20T02:35:39.846Z,6.90
2017-10-20T02:38:07.917Z,7.60
2017-10-20T02:40:35.892Z,7.80
2017-10-20T02:43:03.937Z,7.90
2017-10-20T02:45:31.714Z,6.97
2017-10-20T02:47:59.451Z,8.00
2017-10-20T02:50:27.290Z,7.90
2017-10-20T02:52:55.110Z,8.43
2017-10-20T02:55:22.881Z,6.43
2017-10-20T02:57:51.151Z,6.27
2017-10-20T03:00:19.124Z,6.83
2017-10-20T03:02:47.074Z,5.80
2017-10-20T03:05:16.387Z,6.50
2017-10-20T03:07:44.160Z,5.87
2017-10-20T03:10:12.208Z,5.87
2017-10-20T03:12:40.277Z,7.27
2017-10-20T03:15:08.141Z,7.80
2017-10-20T03:17:35.863Z,9.20
2017-10-20T03:20:03.668Z,11.20
2017-10-20T03:22:31.525Z,10.63
2017-10-20T03:24:59.321Z,10.27
2017-10-20T03:27:27.183Z,10.67
2017-10-20T03:29:55.518Z,10.17
2017-10-20T03:32:23.332Z,9.53
2017-10-20T03:34:51.093Z,10.27
2017-10-20T03:37:18.854Z,9.97
2017-10-20T03:39:46.717Z,11.23
2017-10-20T03:42:14.671Z,11.27
2017-10-20T03:44:42.539Z,10.63
2017-10-20T03:47:10.274Z,9.33
2017-10-20T03:49:38.007Z,9.37
2017-10-20T03:52:06.209Z,10.50
2017-10-20T03:54:33.955Z,10.83
2017-10-20T03:57:02.505Z,11.90
2017-10-20T03:59:30.267Z,11.30
2017-10-20T04:01:58.050Z,12.70
2017-10-20T04:04:26.104Z,12.13
2017-10-20T04:06:54.637Z,12.10
2017-10-20T04:09:22.542Z,13.70
2017-10-20T04:11:50.451Z,13.30
2017-10-20T04:14:19.038Z,13.57
2017-10-20T04:16:47.820Z,12.77
2017-10-20T04:19:16.573Z,13.07
2017-10-20T04:21:44.547Z,11.00
2017-10-20T04:24:12.419Z,14.97
2017-10-20T04:26:40.208Z,16.47
2017-10-20T04:29:08.792Z,18.50
2017-10-20T04:31:38.366Z,22.40
2017-10-20T04:34:06.179Z,20.20
2017-10-20T04:36:34.112Z,21.73
2017-10-20T04:39:02.280Z,22.07
2017-10-20T04:41:30.147Z,27.03
2017-10-20T04:43:58.011Z,24.80
2017-10-20T04:46:26.781Z,26.00
2017-10-20T04:48:54.757Z,16.13
2017-10-20T04:51:22.749Z,12.97
2017-10-20T04:53:50.600Z,11.30
2017-10-20T04:56:18.375Z,6.67
2017-10-20T04:58:47.152Z,5.80
2017-10-20T05:01:15.206Z,6.20
2017-10-20T05:03:43.240Z,6.10
2017-10-20T05:06:11.204Z,6.50
2017-10-20T05:08:39.746Z,6.57
2017-10-20T05:11:07.690Z,6.20
2017-10-20T05:13:36.086Z,8.17
2017-10-20T05:16:03.870Z,6.03
2017-10-20T05:18:31.806Z,4.90
2017-10-20T05:20:59.595Z,7.37
2017-10-20T05:23:28.294Z,6.60
2017-10-20T05:25:57.034Z,8.73
2017-10-20T05:28:25.114Z,9.63
2017-10-20T05:30:53.923Z,13.20
2017-10-20T05:33:21.712Z,16.20
2017-10-20T05:35:51.272Z,18.17
2017-10-20T05:38:19.207Z,17.50
2017-10-20T05:40:48.045Z,18.93
2017-10-20T05:43:15.915Z,19.13
2017-10-20T05:45:43.744Z,19.17
2017-10-20T05:48:11.643Z,17.93
2017-10-20T05:50:39.383Z,19.07
2017-10-20T05:53:07.276Z,18.90
2017-10-20T05:55:35.153Z,18.00
2017-10-20T05:58:03.017Z,17.60
2017-10-20T06:00:30.763Z,14.07
2017-10-20T06:02:58.531Z,14.43
2017-10-20T06:05:26.402Z,14.03
2017-10-20T06:07:54.151Z,13.60
2017-10-20T06:10:21.937Z,13.93
2017-10-20T06:12:55.108Z,14.50
2017-10-20T06:15:22.996Z,13.37
2017-10-20T06:17:50.942Z,12.20
2017-10-20T06:20:18.744Z,10.70
2017-10-20T06:22:47.391Z,9.10
2017-10-20T06:25:15.156Z,9.30
2017-10-20T06:27:43.653Z,7.97
2017-10-20T06:30:12.245Z,8.23
2017-10-20T06:32:40.137Z,7.10
2017-10-20T06:35:08.674Z,6.73
2017-10-20T06:37:36.435Z,6.03
2017-10-20T06:40:04.402Z,6.10
2017-10-20T06:42:32.283Z,5.40
2017-10-20T06:45:00.066Z,5.57
2017-10-20T06:47:28.443Z,6.00
2017-10-20T06:49:56.481Z,4.30
2017-10-20T06:52:24.370Z,5.07
2017-10-20T06:54:52.196Z,4.30
2017-10-20T06:57:20.910Z,5.20
2017-10-20T06:59:48.906Z,5.20
2017-10-20T07:02:16.683Z,6.03
2017-10-20T07:04:46.387Z,8.17
2017-10-20T07:07:14.326Z,10.13
2017-10-20T07:09:42.279Z,11.60
2017-10-20T07:12:10.164Z,10.10
2017-10-20T07:14:37.957Z,10.00
2017-10-20T07:17:06.620Z,9.40
2017-10-20T07:19:40.528Z,10.30
2017-10-20T07:22:08.368Z,10.37
2017-10-20T07:24:36.236Z,9.47
2017-10-20T07:27:04.205Z,11.30
2017-10-20T07:29:32.087Z,10.30
2017-10-20T07:32:02.725Z,8.23
2017-10-20T07:34:30.518Z,10.87
2017-10-20T07:36:59.149Z,13.13
2017-10-20T07:39:27.035Z,11.60
2017-10-20T07:41:54.904Z,11.27
2017-10-20T07:44:23.299Z,10.67
2017-10-20T07:46:51.176Z,10.60
2017-10-20T07:49:20.039Z,9.87
2017-10-20T07:51:48.010Z,9.07
2017-10-20T07:54:15.855Z,9.40
2017-10-20T07:56:43.681Z,10.00
2017-10-20T07:59:11.542Z,10.13
2017-10-20T08:01:40.100Z,9.67
2017-10-20T08:04:08.219Z,10.87
2017-10-20T08:06:35.987Z,12.40
2017-10-20T08:09:03.839Z,12.50
2017-10-20T08:11:31.960Z,13.80
2017-10-20T08:13:59.731Z,12.90
2017-10-20T08:16:27.604Z,14.83
2017-10-20T08:18:56.263Z,14.30
2017-10-20T08:21:24.052Z,13.27
2017-10-20T08:23:52.137Z,14.93
2017-10-20T08:26:20.189Z,14.27
2017-10-20T08:28:48.071Z,12.30
2017-10-20T08:31:17.066Z,12.33
2017-10-20T08:33:44.922Z,12.77
2017-10-20T08:36:12.696Z,13.70
2017-10-20T08:38:41.258Z,12.27
2017-10-20T08:41:09.966Z,10.93
2017-10-20T08:46:11.927Z,8.90
2017-10-20T08:48:39.729Z,9.10
2017-10-20T08:51:08.381Z,9.57
2017-10-20T08:53:36.328Z,10.27
2017-10-20T08:56:04.432Z,9.23
2017-10-20T08:58:32.289Z,9.60
2017-10-20T09:01:00.237Z,9.37
2017-10-20T09:03:28.106Z,8.53
2017-10-20T09:05:55.988Z,8.30
2017-10-20T09:08:24.153Z,8.83
2017-10-20T09:10:52.192Z,8.60
2017-10-20T09:13:19.995Z,8.10
2017-10-20T09:15:47.781Z,8.53
2017-10-20T09:18:15.567Z,7.60
2017-10-20T09:20:44.237Z,9.40
2017-10-20T09:23:12.797Z,7.60
2017-10-20T09:25:40.893Z,7.50
2017-10-20T09:28:09.452Z,8.77
2017-10-20T09:30:37.294Z,7.43
2017-10-20T09:33:05.931Z,8.10
2017-10-20T09:35:34.494Z,8.20
2017-10-20T09:38:02.267Z,7.60
2017-10-20T09:40:30.843Z,8.30
2017-10-20T09:42:59.388Z,8.03
2017-10-20T09:45:27.473Z,8.00
2017-10-20T09:47:55.241Z,8.27
2017-10-20T09:50:23.110Z,8.00
2017-10-20T09:52:50.993Z,7.80
2017-10-20T09:55:18.755Z,7.93
2017-10-20T09:57:47.312Z,6.60
2017-10-20T10:00:15.177Z,6.03
2017-10-20T10:02:43.271Z,7.30
2017-10-20T10:05:11.219Z,8.00
2017-10-20T10:07:38.978Z,6.63
2017-10-20T10:10:06.766Z,7.60
2017-10-20T10:12:34.713Z,7.90
2017-10-20T10:15:02.697Z,6.83
2017-10-20T10:17:30.654Z,7.63
2017-10-20T10:19:58.727Z,7.80
2017-10-20T10:22:26.699Z,6.90
2017-10-20T10:24:55.289Z,6.63
2017-10-20T10:27:23.272Z,6.60
2017-10-20T10:29:51.181Z,6.63
2017-10-20T10:32:19.091Z,6.50
2017-10-20T10:34:46.904Z,6.73
2017-10-20T10:37:15.970Z,7.10
2017-10-20T10:39:43.825Z,7.53
2017-10-20T10:42:11.590Z,7.20
2017-10-20T10:44:40.896Z,7.17
2017-10-20T10:47:08.738Z,6.13
2017-10-20T10:49:36.737Z,7.40
2017-10-20T10:52:04.677Z,7.43
2017-10-20T10:54:32.567Z,10.97
2017-10-20T10:57:00.431Z,16.33
2017-10-20T10:59:28.430Z,18.93
2017-10-20T11:01:57.036Z,20.30
2017-10-20T11:04:24.948Z,20.83
2017-10-20T11:07:04.911Z,20.30
2017-10-20T11:09:32.812Z,19.37
2017-10-20T11:12:12.802Z,18.80
2017-10-20T11:14:40.685Z,18.97
2017-10-20T11:17:08.544Z,19.47
2017-10-20T11:19:36.317Z,19.10
2017-10-20T11:22:04.288Z,18.73
2017-10-20T11:24:32.165Z,19.37
2017-10-20T11:27:00.104Z,20.37
2017-10-20T11:29:28.068Z,20.27
2017-10-20T11:31:55.914Z,18.20
2017-10-20T11:34:23.775Z,19.37
2017-10-20T11:36:51.670Z,17.57
2017-10-20T11:39:19.537Z,19.50
2017-10-20T11:41:47.355Z,18.00
2017-10-20T11:44:16.123Z,18.40
2017-10-20T11:46:45.161Z,20.03
2017-10-20T11:49:13.171Z,20.23
2017-10-20T11:51:40.947Z,18.47
2017-10-20T11:54:08.739Z,18.60
2017-10-20T11:56:37.411Z,19.80
2017-10-20T11:59:06.033Z,18.77
2017-10-20T12:01:33.939Z,16.03
2017-10-20T12:04:02.831Z,17.00
2017-10-20T12:06:30.804Z,17.00
2017-10-20T12:08:58.876Z,19.10
2017-10-20T12:11:26.734Z,19.27
2017-10-20T12:13:54.585Z,18.93
2017-10-20T12:16:22.467Z,18.77
2017-10-20T12:18:50.355Z,16.60
2017-10-20T12:21:18.919Z,16.23
2017-10-20T12:23:46.681Z,18.63
2017-10-20T12:26:14.633Z,18.73
2017-10-20T12:28:42.412Z,18.60
2017-10-20T12:31:10.269Z,19.97
2017-10-20T12:33:38.130Z,15.33
2017-10-20T12:36:05.972Z,16.90
2017-10-20T12:38:33.861Z,17.23
2017-10-20T12:41:01.731Z,18.40
2017-10-20T12:43:30.026Z,17.07
2017-10-20T12:45:57.852Z,17.20
2017-10-20T12:48:25.616Z,16.17
2017-10-20T12:50:53.408Z,17.83
2017-10-20T12:53:21.269Z,16.67
2017-10-20T12:55:49.666Z,18.90
2017-10-20T12:58:17.452Z,17.67
2017-10-20T13:00:46.574Z,17.33
2017-10-20T13:03:14.387Z,16.53
2017-10-20T13:05:43.085Z,18.23
2017-10-20T13:08:10.889Z,17.73
2017-10-20T13:10:38.893Z,18.80
2017-10-20T13:13:06.676Z,16.63
2017-10-20T13:15:34.727Z,17.30
2017-10-20T13:20:36.706Z,17.03
2017-10-20T13:23:04.709Z,18.77
2017-10-20T13:25:33.277Z,19.13
2017-10-20T13:28:01.230Z,16.90
2017-10-20T13:30:29.011Z,15.93
2017-10-20T13:32:56.988Z,15.00
2017-10-20T13:35:24.949Z,15.50
2017-10-20T13:37:52.902Z,15.37
2017-10-20T13:40:20.832Z,15.23
2017-10-20T13:42:48.648Z,15.83
2017-10-20T13:45:16.603Z,14.70
2017-10-20T13:47:44.396Z,15.50
2017-10-20T13:50:12.337Z,14.40
2017-10-20T13:52:40.208Z,14.80
2017-10-20T13:55:07.987Z,15.90
2017-10-20T13:57:35.877Z,15.50
2017-10-20T14:00:04.535Z,14.60
2017-10-20T14:02:32.502Z,15.60
2017-10-20T14:05:01.401Z,16.00
2017-10-20T14:07:30.064Z,13.50
2017-10-20T14:09:57.931Z,16.13
2017-10-20T14:12:26.001Z,14.47
2017-10-20T14:14:53.884Z,15.20
2017-10-20T14:17:21.761Z,15.63
2017-10-20T14:19:49.544Z,15.20
2017-10-20T14:22:18.205Z,12.77
2017-10-20T14:24:46.077Z,10.87
2017-10-20T14:27:14.739Z,10.27
2017-10-20T14:29:42.537Z,11.00
2017-10-20T14:32:11.320Z,11.30
2017-10-20T14:34:40.077Z,9.43
2017-10-20T14:37:08.676Z,11.50
2017-10-20T14:39:38.166Z,11.97
2017-10-20T14:42:06.667Z,12.10
2017-10-20T14:44:34.433Z,10.77
2017-10-20T14:47:02.484Z,8.77
2017-10-20T14:49:30.557Z,9.77
2017-10-20T14:51:58.431Z,9.60
2017-10-20T14:54:26.304Z,11.20
2017-10-20T14:56:54.280Z,10.07
2017-10-20T14:59:22.139Z,10.53
2017-10-20T15:01:50.950Z,10.47
2017-10-20T15:04:19.525Z,11.30
2017-10-20T15:06:47.312Z,9.73
2017-10-20T15:09:15.823Z,10.07
2017-10-20T15:11:43.804Z,10.00
2017-10-20T15:14:11.677Z,8.73
2017-10-20T15:16:39.463Z,10.00
2017-10-20T15:19:07.324Z,10.00
2017-10-20T15:21:35.184Z,8.23
2017-10-20T15:24:03.308Z,8.90
2017-10-20T15:26:31.230Z,8.60
2017-10-20T15:28:59.003Z,14.00
2017-10-20T15:31:26.943Z,13.73
2017-10-20T15:33:54.799Z,9.27
2017-10-20T15:36:22.555Z,8.83
2017-10-20T15:38:50.396Z,8.93
2017-10-20T15:41:19.341Z,8.70
2017-10-20T15:43:47.211Z,7.97
2017-10-20T15:46:15.134Z,8.90
2017-10-20T15:48:43.051Z,8.87
2017-10-20T15:51:10.824Z,10.37
2017-10-20T15:53:38.767Z,9.40
2017-10-20T15:56:06.752Z,10.50
2017-10-20T15:58:34.587Z,9.57
2017-10-20T16:01:02.372Z,10.40
2017-10-20T16:03:30.251Z,9.60
2017-10-20T16:05:58.110Z,8.90
2017-10-20T16:08:26.020Z,10.20
2017-10-20T16:10:54.518Z,9.27
2017-10-20T16:13:22.255Z,9.60
2017-10-20T16:15:50.923Z,9.93
2017-10-20T16:18:18.887Z,9.83
2017-10-20T16:20:46.717Z,9.30
2017-10-20T16:23:14.553Z,49.67
2017-10-20T16:25:43.179Z,20.03
2017-10-20T16:28:11.263Z,13.40
2017-10-20T16:30:39.145Z,9.13
2017-10-20T16:33:07.054Z,8.00
2017-10-20T16:35:34.805Z,8.70
2017-10-20T16:38:03.538Z,8.70
2017-10-20T16:40:32.041Z,8.50
2017-10-20T16:42:59.989Z,8.10
2017-10-20T16:45:29.204Z,7.70
2017-10-20T16:47:57.073Z,7.60
2017-10-20T16:50:27.518Z,8.37
2017-10-20T16:52:55.463Z,8.27
2017-10-20T16:55:23.637Z,7.33
2017-10-20T16:57:51.922Z,8.17
2017-10-20T17:00:19.795Z,8.87
2017-10-20T17:02:48.450Z,11.07
2017-10-20T17:05:16.418Z,48.30
2017-10-20T17:07:45.343Z,14.20
2017-10-20T17:10:13.891Z,10.97
2017-10-20T17:12:41.678Z,8.20
2017-10-20T17:15:10.342Z,9.70
2017-10-20T17:17:38.336Z,10.60
2017-10-20T17:20:06.191Z,8.80
2017-10-20T17:22:35.169Z,10.13
2017-10-20T17:25:02.948Z,10.60
2017-10-20T17:27:30.821Z,9.80
2017-10-20T17:29:58.652Z,9.80
2017-10-20T17:32:26.572Z,12.13
2017-10-20T17:34:54.713Z,13.57
2017-10-20T17:37:22.814Z,11.67
2017-10-20T17:39:50.669Z,12.53
2017-10-20T17:42:18.543Z,13.13
2017-10-20T17:44:46.395Z,13.20
2017-10-20T17:47:14.170Z,13.27
2017-10-20T17:49:42.361Z,11.10
2017-10-20T17:52:11.134Z,11.40
2017-10-20T17:54:39.201Z,13.20
2017-10-20T17:57:06.981Z,11.60
2017-10-20T17:59:35.630Z,11.13
2017-10-20T18:02:03.592Z,11.13
2017-10-20T18:04:31.524Z,12.00
2017-10-20T18:06:59.371Z,12.10
2017-10-20T18:09:27.293Z,12.20
2017-10-20T18:11:55.266Z,11.17
2017-10-20T18:14:33.578Z,10.80
2017-10-20T18:17:01.649Z,11.83
2017-10-20T18:19:29.550Z,12.47
2017-10-20T18:21:58.402Z,11.67
2017-10-20T18:24:26.405Z,13.50
2017-10-20T18:26:54.455Z,16.30
2017-10-20T18:29:22.345Z,16.97
2017-10-20T18:31:50.156Z,17.37
2017-10-20T18:34:18.351Z,14.40
2017-10-20T18:36:46.731Z,16.07
2017-10-20T18:39:14.805Z,14.90
2017-10-20T18:41:42.710Z,15.77
2017-10-20T18:44:11.526Z,16.50
2017-10-20T18:46:39.673Z,17.37
2017-10-20T18:49:08.261Z,14.40
2017-10-20T18:51:36.999Z,13.83
2017-10-20T18:54:04.910Z,12.50
2017-10-20T18:56:33.701Z,13.30
2017-10-20T18:59:02.542Z,13.50
2017-10-20T19:01:30.414Z,13.27
2017-10-20T19:03:58.354Z,12.40
2017-10-20T19:06:26.455Z,12.30
2017-10-20T19:08:54.239Z,10.60
2017-10-20T19:11:22.117Z,10.30
2017-10-20T19:13:50.053Z,10.83
2017-10-20T19:16:18.024Z,11.20
2017-10-20T19:18:45.790Z,10.60
2017-10-20T19:21:13.905Z,11.07
2017-10-20T19:23:42.852Z,11.60
2017-10-20T19:26:10.772Z,11.67
2017-10-20T19:28:39.435Z,10.47
2017-10-20T19:31:08.405Z,11.53
2017-10-20T19:33:36.578Z,11.73
2017-10-20T19:36:04.518Z,12.80
2017-10-20T19:38:32.507Z,12.20
2017-10-20T19:41:00.485Z,13.60
2017-10-20T19:43:28.600Z,13.87
2017-10-20T19:45:57.475Z,14.20
2017-10-20T19:48:26.173Z,14.80
2017-10-20T19:50:54.919Z,18.37
2017-10-20T19:53:23.642Z,15.77
2017-10-20T19:55:52.291Z,15.00
2017-10-20T19:58:20.274Z,15.30
2017-10-20T20:00:48.425Z,14.60
2017-10-20T20:03:16.492Z,13.60
2017-10-20T20:05:44.498Z,14.40
2017-10-20T20:08:12.566Z,15.83
2017-10-20T20:10:40.537Z,14.30
2017-10-20T20:13:08.449Z,14.93
2017-10-20T20:15:36.381Z,15.67
2017-10-20T20:18:05.043Z,12.97
2017-10-20T20:20:33.016Z,13.00
2017-10-20T20:23:00.964Z,13.70
2017-10-20T20:25:28.920Z,13.80
2017-10-20T20:27:57.719Z,13.80
2017-10-20T20:30:26.234Z,11.57
2017-10-20T20:32:58.812Z,11.00
2017-10-20T20:35:26.773Z,10.13
2017-10-20T20:37:54.628Z,10.50
2017-10-20T20:40:22.582Z,10.13
2017-10-20T20:42:50.482Z,10.30
2017-10-20T20:45:18.434Z,10.17
2017-10-20T20:47:46.307Z,9.50
2017-10-20T20:50:14.065Z,8.50
2017-10-20T20:52:42.015Z,9.37
2017-10-20T20:55:09.881Z,9.47
2017-10-20T20:57:37.676Z,9.57
2017-10-20T21:00:07.047Z,9.87
2017-10-20T21:02:35.124Z,8.70
2017-10-20T21:05:03.053Z,9.13
2017-10-20T21:07:30.980Z,9.17
2017-10-20T21:09:58.840Z,9.30
2017-10-20T21:12:26.708Z,8.80
2017-10-20T21:14:54.689Z,9.00
2017-10-20T21:17:22.639Z,8.93
2017-10-20T21:19:50.520Z,8.93
2017-10-20T21:22:18.581Z,9.60
2017-10-20T21:24:48.884Z,9.10
2017-10-20T21:27:17.526Z,9.57
2017-10-20T21:29:45.438Z,11.20
2017-10-20T21:32:13.194Z,9.30
2017-10-20T21:34:40.985Z,8.63
2017-10-20T21:37:08.848Z,8.77
2017-10-20T21:39:36.800Z,9.37
2017-10-20T21:42:04.705Z,9.53
2017-10-20T21:44:33.270Z,9.23
2017-10-20T21:47:01.071Z,8.60
2017-10-20T21:49:29.116Z,8.80
2017-10-20T21:51:56.971Z,8.93
2017-10-20T21:54:24.949Z,8.43
2017-10-20T21:56:52.836Z,9.30
2017-10-20T21:59:22.104Z,9.73
2017-10-20T22:01:49.940Z,7.80
2017-10-20T22:04:17.866Z,8.57
2017-10-20T22:06:46.388Z,9.33
2017-10-20T22:09:14.286Z,10.07
2017-10-20T22:11:42.072Z,9.33
2017-10-20T22:14:09.898Z,10.27
2017-10-20T22:16:38.743Z,11.07
2017-10-20T22:19:07.476Z,10.60
2017-10-20T22:24:09.954Z,11.40
2017-10-20T22:26:37.704Z,11.90
2017-10-20T22:29:05.599Z,12.00
2017-10-20T22:31:33.469Z,12.67
2017-10-20T22:34:01.303Z,11.73
2017-10-20T22:36:29.119Z,12.70
2017-10-20T22:38:56.984Z,11.83
2017-10-20T22:41:24.848Z,12.70
2017-10-20T22:43:52.620Z,12.30
2017-10-20T22:46:20.422Z,10.87
2017-10-20T22:48:48.344Z,11.63
2017-10-20T22:51:16.319Z,12.23
2017-10-20T22:53:44.163Z,12.03
2017-10-20T22:56:12.059Z,12.43
2017-10-20T22:58:39.911Z,13.40
2017-10-20T23:01:07.673Z,11.03
2017-10-20T23:03:35.757Z,11.40
2017-10-20T23:06:03.511Z,12.20
2017-10-20T23:08:31.377Z,11.47
2017-10-20T23:11:00.165Z,11.97
2017-10-20T23:13:28.051Z,11.27
2017-10-20T23:15:56.614Z,11.47
2017-10-20T23:18:24.403Z,12.90
2017-10-20T23:20:52.993Z,12.60
2017-10-20T23:23:21.546Z,13.27
2017-10-20T23:25:49.420Z,14.07
2017-10-20T23:28:17.379Z,13.87
2017-10-20T23:30:45.187Z,15.23
2017-10-20T23:33:13.845Z,13.50
2017-10-20T23:35:41.730Z,11.40
2017-10-20T23:38:10.282Z,14.20
2017-10-20T23:40:38.152Z,13.10
2017-10-20T23:43:05.924Z,12.97
2017-10-20T23:45:33.864Z,13.70
2017-10-20T23:48:01.744Z,12.80
2017-10-20T23:50:29.600Z,12.07
2017-10-20T23:52:58.098Z,14.00
2017-10-20T23:55:25.854Z,13.90
2017-10-20T23:57:53.707Z,13.20
